createdAt,value
2023-03-02T00:01:03.812Z,10.98
2023-03-02T00:03:33.509Z,12.00
2023-03-02T00:06:01.993Z,11.30
2023-03-02T00:08:30.101Z,12.50
2023-03-02T00:11:00.983Z,11.75
2023-03-02T00:13:31.449Z,11.48
2023-03-02T00:16:00.809Z,12.13
2023-03-02T00:18:30.119Z,12.10
2023-03-02T00:20:58.157Z,10.63
2023-03-02T00:23:26.183Z,11.43
2023-03-02T00:25:54.268Z,11.23
2023-03-02T00:28:22.198Z,12.00
2023-03-02T00:30:50.276Z,11.80
2023-03-02T00:33:19.955Z,11.23
2023-03-02T00:35:48.140Z,11.68
2023-03-02T00:38:16.297Z,11.07
2023-03-02T00:40:48.777Z,10.48
2023-03-02T00:43:17.141Z,11.07
2023-03-02T00:45:45.102Z,10.52
2023-03-02T00:48:13.066Z,11.20
2023-03-02T00:50:42.615Z,11.45
2023-03-02T00:53:11.408Z,10.77
2023-03-02T00:55:39.585Z,11.38
2023-03-02T00:58:07.585Z,10.77
2023-03-02T01:00:35.677Z,11.45
2023-03-02T01:03:03.636Z,10.57
2023-03-02T01:05:31.600Z,11.02
2023-03-02T01:08:01.019Z,11.07
2023-03-02T01:10:29.126Z,11.77
2023-03-02T01:12:57.118Z,11.02
2023-03-02T01:15:25.145Z,12.13
2023-03-02T01:17:53.138Z,11.60
2023-03-02T01:20:21.219Z,10.85
2023-03-02T01:22:49.168Z,10.73
2023-03-02T01:25:18.730Z,11.55
2023-03-02T01:27:46.746Z,11.63
2023-03-02T01:30:15.381Z,11.45
2023-03-02T01:32:43.334Z,11.48
2023-03-02T01:35:11.928Z,11.15
2023-03-02T01:37:39.894Z,10.80
2023-03-02T01:40:09.532Z,11.95
2023-03-02T01:42:41.937Z,11.07
2023-03-02T01:45:54.791Z,11.43
2023-03-02T01:48:28.820Z,11.13
2023-03-02T01:50:57.187Z,11.60
2023-03-02T01:53:28.592Z,11.45
2023-03-02T01:55:57.380Z,10.90
2023-03-02T01:58:28.171Z,12.45
2023-03-02T02:00:57.629Z,10.65
2023-03-02T02:03:28.521Z,11.57
2023-03-02T02:06:07.090Z,11.32
2023-03-02T02:08:35.276Z,11.00
2023-03-02T02:11:03.238Z,11.82
2023-03-02T02:13:33.612Z,11.45
2023-03-02T02:16:01.924Z,10.80
2023-03-02T02:18:29.899Z,11.20
2023-03-02T02:20:58.544Z,10.90
2023-03-02T02:23:29.467Z,11.30
2023-03-02T02:26:11.488Z,11.23
2023-03-02T02:28:44.358Z,12.00
2023-03-02T02:31:17.544Z,11.95
2023-03-02T02:33:49.133Z,11.15
2023-03-02T02:36:21.705Z,11.10
2023-03-02T02:38:53.428Z,10.27
2023-03-02T02:41:25.911Z,11.13
2023-03-02T02:43:55.077Z,10.55
2023-03-02T02:46:23.983Z,10.85
2023-03-02T02:48:51.995Z,10.45
2023-03-02T02:51:25.185Z,11.30
2023-03-02T02:53:58.873Z,11.15
2023-03-02T02:56:31.876Z,10.50
2023-03-02T02:59:05.315Z,10.75
2023-03-02T03:01:35.248Z,11.30
2023-03-02T03:04:06.049Z,10.52
2023-03-02T03:06:42.315Z,10.50
2023-03-02T03:09:12.580Z,10.95
2023-03-02T03:11:44.627Z,10.80
2023-03-02T03:14:15.360Z,10.73
2023-03-02T03:16:45.103Z,10.77
2023-03-02T03:19:19.115Z,10.60
2023-03-02T03:21:48.750Z,11.50
2023-03-02T03:24:16.478Z,10.60
2023-03-02T03:26:46.383Z,10.18
2023-03-02T03:29:15.874Z,10.32
2023-03-02T03:31:43.712Z,11.07
2023-03-02T03:34:12.424Z,10.52
2023-03-02T03:36:42.149Z,10.50
2023-03-02T03:39:10.674Z,10.20
2023-03-02T03:41:38.874Z,10.50
2023-03-02T03:44:08.436Z,10.80
2023-03-02T03:46:36.742Z,11.00
2023-03-02T03:49:04.829Z,9.50
2023-03-02T03:51:35.527Z,9.38
2023-03-02T03:54:04.764Z,10.18
2023-03-02T03:56:35.084Z,10.25
2023-03-02T03:59:07.412Z,10.05
2023-03-02T04:01:38.794Z,11.15
2023-03-02T04:04:08.672Z,11.00
2023-03-02T04:06:36.450Z,9.95
2023-03-02T04:09:04.773Z,10.35
2023-03-02T04:11:33.081Z,10.70
2023-03-02T04:14:00.985Z,10.52
2023-03-02T04:16:29.863Z,10.00
2023-03-02T04:18:59.398Z,10.30
2023-03-02T04:21:27.598Z,10.63
2023-03-02T04:23:55.389Z,11.25
2023-03-02T04:26:23.165Z,10.75
2023-03-02T04:28:51.699Z,10.75
2023-03-02T04:31:19.521Z,10.60
2023-03-02T04:33:47.351Z,10.25
2023-03-02T04:36:16.527Z,11.02
2023-03-02T04:38:44.223Z,10.55
2023-03-02T04:41:12.051Z,10.43
2023-03-02T04:43:39.736Z,10.40
2023-03-02T04:46:07.628Z,10.35
2023-03-02T04:48:35.640Z,11.07
2023-03-02T04:51:03.416Z,11.00
2023-03-02T04:53:32.609Z,11.15
2023-03-02T04:56:00.506Z,10.48
2023-03-02T04:58:28.307Z,10.68
2023-03-02T05:01:02.106Z,11.10
2023-03-02T05:03:30.110Z,10.73
2023-03-02T05:05:57.963Z,10.10
2023-03-02T05:08:25.724Z,11.32
2023-03-02T05:10:54.790Z,10.40
2023-03-02T05:13:22.804Z,10.65
2023-03-02T05:15:51.690Z,10.93
2023-03-02T05:18:20.445Z,10.52
2023-03-02T05:20:48.146Z,11.60
2023-03-02T05:23:25.293Z,11.45
2023-03-02T05:25:56.244Z,10.73
2023-03-02T05:28:26.114Z,10.32
2023-03-02T05:30:54.286Z,10.25
2023-03-02T05:33:22.328Z,11.18
2023-03-02T05:35:50.206Z,10.27
2023-03-02T05:38:18.123Z,10.57
2023-03-02T05:40:46.494Z,10.65
2023-03-02T05:43:18.456Z,10.73
2023-03-02T05:45:46.529Z,11.07
2023-03-02T05:48:15.556Z,11.57
2023-03-02T05:50:43.411Z,11.10
2023-03-02T05:53:11.177Z,10.77
2023-03-02T05:55:38.901Z,11.00
2023-03-02T05:58:09.088Z,11.52
2023-03-02T06:00:38.327Z,11.27
2023-03-02T06:03:06.105Z,10.88
2023-03-02T06:05:34.082Z,10.63
2023-03-02T06:08:02.172Z,10.27
2023-03-02T06:10:29.890Z,9.85
2023-03-02T06:12:58.579Z,11.65
2023-03-02T06:15:29.776Z,12.18
2023-03-02T06:17:59.105Z,10.05
2023-03-02T06:20:27.465Z,10.70
2023-03-02T06:22:55.760Z,11.27
2023-03-02T06:25:25.021Z,10.65
2023-03-02T06:27:53.829Z,11.07
2023-03-02T06:30:24.189Z,9.75
2023-03-02T06:32:52.220Z,10.48
2023-03-02T06:35:21.709Z,10.45
2023-03-02T06:37:49.535Z,11.13
2023-03-02T06:40:17.364Z,11.18
2023-03-02T06:42:45.187Z,11.13
2023-03-02T06:45:13.244Z,9.93
2023-03-02T06:47:41.114Z,10.60
2023-03-02T06:50:10.601Z,10.73
2023-03-02T06:52:39.955Z,10.48
2023-03-02T06:55:08.839Z,11.18
2023-03-02T06:57:36.581Z,11.30
2023-03-02T07:00:09.997Z,11.30
2023-03-02T07:02:38.600Z,11.05
2023-03-02T07:05:07.772Z,10.63
2023-03-02T07:07:35.666Z,10.63
2023-03-02T07:10:05.430Z,10.63
2023-03-02T07:12:33.173Z,10.88
2023-03-02T07:15:00.884Z,11.60
2023-03-02T07:17:28.671Z,10.73
2023-03-02T07:19:56.578Z,10.80
2023-03-02T07:22:24.283Z,10.68
2023-03-02T07:24:51.983Z,11.05
2023-03-02T07:27:21.114Z,10.30
2023-03-02T07:29:48.907Z,10.82
2023-03-02T07:32:16.703Z,10.68
2023-03-02T07:34:44.511Z,10.88
2023-03-02T07:37:12.246Z,10.75
2023-03-02T07:39:39.945Z,10.23
2023-03-02T07:42:09.079Z,10.10
2023-03-02T07:44:38.236Z,10.48
2023-03-02T07:47:06.112Z,11.13
2023-03-02T07:49:35.374Z,10.55
2023-03-02T07:52:03.572Z,10.23
2023-03-02T07:54:31.479Z,10.27
2023-03-02T07:56:59.446Z,10.32
2023-03-02T07:59:28.391Z,10.38
2023-03-02T08:01:58.403Z,10.93
2023-03-02T08:04:26.659Z,10.98
2023-03-02T08:06:54.484Z,9.93
2023-03-02T08:09:22.316Z,10.85
2023-03-02T08:11:50.121Z,10.68
2023-03-02T08:14:18.049Z,10.43
2023-03-02T08:16:45.851Z,11.27
2023-03-02T08:19:15.082Z,10.20
2023-03-02T08:21:43.105Z,11.07
2023-03-02T08:24:11.100Z,11.40
2023-03-02T08:26:39.259Z,11.15
2023-03-02T08:29:07.993Z,11.00
2023-03-02T08:31:36.226Z,11.18
2023-03-02T08:34:04.273Z,10.90
2023-03-02T08:36:33.802Z,11.20
2023-03-02T08:39:01.706Z,11.40
2023-03-02T08:41:30.624Z,11.10
2023-03-02T08:43:59.076Z,11.88
2023-03-02T08:46:27.040Z,11.23
2023-03-02T08:48:54.950Z,11.88
2023-03-02T08:51:25.093Z,11.35
2023-03-02T08:53:56.547Z,11.15
2023-03-02T08:56:26.549Z,11.65
2023-03-02T08:58:56.245Z,11.68
2023-03-02T09:01:26.671Z,12.05
2023-03-02T09:03:54.562Z,11.85
2023-03-02T09:06:22.841Z,11.43
2023-03-02T09:08:50.788Z,11.88
2023-03-02T09:11:20.426Z,11.98
2023-03-02T09:13:48.600Z,11.75
2023-03-02T09:16:16.748Z,11.93
2023-03-02T09:18:44.786Z,12.18
2023-03-02T09:21:12.611Z,12.27
2023-03-02T09:23:40.790Z,13.18
2023-03-02T09:26:09.015Z,11.90
2023-03-02T09:28:39.078Z,12.30
2023-03-02T09:31:08.592Z,12.23
2023-03-02T09:33:36.749Z,12.27
2023-03-02T09:36:07.582Z,12.00
2023-03-02T09:38:35.516Z,11.68
2023-03-02T09:41:33.792Z,12.05
2023-03-02T09:44:25.411Z,11.27
2023-03-02T09:46:57.258Z,11.88
2023-03-02T09:49:34.137Z,11.57
2023-03-02T09:52:11.715Z,11.80
2023-03-02T09:54:41.409Z,12.18
2023-03-02T09:57:22.043Z,12.55
2023-03-02T09:59:55.246Z,12.85
2023-03-02T10:02:28.302Z,11.35
2023-03-02T10:04:58.562Z,12.30
2023-03-02T10:07:29.365Z,11.90
2023-03-02T10:09:59.978Z,12.18
2023-03-02T10:12:49.976Z,12.05
2023-03-02T10:15:24.766Z,12.18
2023-03-02T10:18:03.975Z,12.90
2023-03-02T10:20:35.692Z,11.88
2023-03-02T10:23:16.629Z,12.18
2023-03-02T10:25:49.490Z,12.05
2023-03-02T10:30:54.697Z,12.88
2023-03-02T10:33:23.307Z,12.52
2023-03-02T10:35:53.009Z,12.52
2023-03-02T10:38:23.650Z,11.85
2023-03-02T10:40:57.253Z,13.02
2023-03-02T10:43:31.716Z,12.63
2023-03-02T10:46:02.636Z,12.27
2023-03-02T10:48:30.622Z,12.55
2023-03-02T10:51:00.603Z,12.15
2023-03-02T10:53:29.083Z,11.75
2023-03-02T10:55:56.881Z,11.60
2023-03-02T10:58:27.644Z,12.40
2023-03-02T11:01:02.666Z,12.60
2023-03-02T11:03:31.475Z,12.07
2023-03-02T11:06:00.696Z,11.10
2023-03-02T11:08:31.748Z,12.32
2023-03-02T11:11:01.754Z,11.57
2023-03-02T11:13:31.670Z,12.18
2023-03-02T11:16:02.453Z,12.25
2023-03-02T11:18:35.085Z,10.77
2023-03-02T11:21:06.828Z,12.35
2023-03-02T11:23:42.052Z,12.13
2023-03-02T11:26:19.317Z,11.73
2023-03-02T11:28:53.523Z,11.18
2023-03-02T11:31:33.863Z,11.75
2023-03-02T11:34:17.639Z,11.05
2023-03-02T11:36:56.220Z,9.73
2023-03-02T11:39:30.054Z,11.23
2023-03-02T11:41:58.433Z,10.35
2023-03-02T11:44:27.440Z,9.90
2023-03-02T11:47:01.987Z,10.80
2023-03-02T11:49:38.776Z,10.32
2023-03-02T11:52:17.037Z,10.20
2023-03-02T11:54:47.032Z,11.13
2023-03-02T11:57:22.543Z,9.98
2023-03-02T11:59:52.185Z,11.07
2023-03-02T12:02:21.850Z,11.50
2023-03-02T12:04:49.816Z,10.50
2023-03-02T12:07:22.908Z,11.93
2023-03-02T12:10:06.579Z,10.70
2023-03-02T12:12:41.985Z,10.65
2023-03-02T12:15:28.860Z,10.60
2023-03-02T12:17:58.127Z,9.70
2023-03-02T12:20:31.650Z,10.18
2023-03-02T12:23:11.447Z,10.52
2023-03-02T12:25:43.882Z,10.50
2023-03-02T12:28:28.332Z,10.50
2023-03-02T12:31:05.534Z,10.43
2023-03-02T12:33:42.401Z,10.10
2023-03-02T12:36:17.091Z,10.23
2023-03-02T12:38:51.291Z,11.00
2023-03-02T12:41:32.128Z,10.40
2023-03-02T12:44:16.682Z,10.23
2023-03-02T12:46:46.652Z,10.60
2023-03-02T12:49:35.507Z,11.23
2023-03-02T12:52:05.528Z,10.63
2023-03-02T12:54:35.997Z,10.35
2023-03-02T12:57:08.693Z,10.07
2023-03-02T12:59:37.665Z,10.15
2023-03-02T13:02:13.886Z,10.00
2023-03-02T13:04:43.026Z,10.05
2023-03-02T13:07:24.331Z,10.00
2023-03-02T13:09:57.046Z,10.13
2023-03-02T13:12:27.864Z,10.43
2023-03-02T13:14:57.887Z,9.65
2023-03-02T13:17:29.537Z,10.40
2023-03-02T13:19:59.601Z,9.63
2023-03-02T13:22:28.581Z,9.70
2023-03-02T13:25:00.272Z,9.20
2023-03-02T13:27:28.547Z,9.60
2023-03-02T13:29:57.309Z,10.30
2023-03-02T13:32:28.369Z,9.68
2023-03-02T13:34:59.369Z,9.68
2023-03-02T13:37:39.158Z,9.90
2023-03-02T13:40:09.507Z,10.50
2023-03-02T13:42:39.698Z,9.02
2023-03-02T13:45:22.204Z,9.15
2023-03-02T13:47:50.312Z,9.27
2023-03-02T13:50:21.965Z,10.02
2023-03-02T13:52:50.560Z,9.98
2023-03-02T13:55:20.151Z,9.48
2023-03-02T13:57:49.137Z,9.07
2023-03-02T14:00:20.164Z,9.52
2023-03-02T14:02:48.757Z,10.15
2023-03-02T14:05:21.484Z,9.88
2023-03-02T14:07:49.934Z,9.35
2023-03-02T14:10:19.286Z,9.48
2023-03-02T14:12:54.987Z,9.40
2023-03-02T14:15:22.766Z,9.05
2023-03-02T14:17:50.645Z,10.10
2023-03-02T14:20:21.782Z,9.60
2023-03-02T14:22:50.659Z,9.02
2023-03-02T14:25:19.631Z,9.73
2023-03-02T14:27:48.055Z,10.02
2023-03-02T14:30:19.568Z,9.50
2023-03-02T14:32:47.628Z,9.65
2023-03-02T14:35:16.862Z,10.23
2023-03-02T14:37:49.794Z,9.48
2023-03-02T14:40:22.107Z,9.35
2023-03-02T14:42:51.839Z,9.55
2023-03-02T14:45:21.682Z,9.27
2023-03-02T14:47:49.559Z,9.05
2023-03-02T14:50:17.750Z,9.15
2023-03-02T14:52:49.227Z,9.57
2023-03-02T14:55:25.716Z,8.85
2023-03-02T14:57:56.605Z,8.75
2023-03-02T15:00:25.360Z,9.15
2023-03-02T15:02:53.329Z,9.73
2023-03-02T15:05:21.731Z,9.35
2023-03-02T15:07:53.165Z,9.50
2023-03-02T15:10:23.347Z,8.98
2023-03-02T15:12:51.887Z,8.90
2023-03-02T15:15:19.917Z,8.80
2023-03-02T15:17:47.727Z,9.02
2023-03-02T15:20:17.156Z,8.68
2023-03-02T15:22:45.009Z,8.50
2023-03-02T15:25:14.249Z,7.72
2023-03-02T15:27:42.552Z,7.88
2023-03-02T15:30:12.329Z,8.10
2023-03-02T15:32:40.320Z,8.70
2023-03-02T15:35:09.117Z,8.52
2023-03-02T15:37:36.979Z,7.88
2023-03-02T15:40:05.155Z,7.82
2023-03-02T15:42:34.298Z,7.80
2023-03-02T15:45:02.009Z,7.55
2023-03-02T15:47:29.764Z,8.45
2023-03-02T15:49:57.647Z,7.82
2023-03-02T15:52:25.443Z,8.32
2023-03-02T15:54:53.227Z,8.07
2023-03-02T15:57:21.080Z,8.02
2023-03-02T15:59:50.441Z,8.18
2023-03-02T16:02:18.284Z,8.27
2023-03-02T16:04:46.257Z,8.77
2023-03-02T16:07:13.980Z,9.00
2023-03-02T16:09:41.769Z,8.90
2023-03-02T16:12:09.589Z,8.90
2023-03-02T16:14:37.393Z,9.00
2023-03-02T16:17:06.553Z,8.60
2023-03-02T16:19:34.392Z,9.40
2023-03-02T16:22:02.160Z,9.25
2023-03-02T16:24:29.888Z,9.02
2023-03-02T16:26:57.668Z,9.45
2023-03-02T16:29:25.487Z,8.80
2023-03-02T16:31:53.487Z,8.98
2023-03-02T16:34:22.823Z,8.70
2023-03-02T16:36:50.721Z,9.27
2023-03-02T16:39:18.530Z,8.82
2023-03-02T16:41:47.046Z,8.02
2023-03-02T16:44:16.150Z,8.90
2023-03-02T16:46:44.335Z,8.35
2023-03-02T16:49:13.036Z,8.45
2023-03-02T16:51:42.897Z,8.90
2023-03-02T16:54:12.048Z,9.40
2023-03-02T16:56:41.782Z,8.15
2023-03-02T16:59:09.619Z,8.55
2023-03-02T17:01:37.419Z,8.80
2023-03-02T17:04:06.094Z,8.63
2023-03-02T17:06:34.203Z,8.32
2023-03-02T17:09:03.460Z,8.10
2023-03-02T17:11:32.027Z,8.48
2023-03-02T17:13:59.914Z,8.52
2023-03-02T17:16:27.905Z,10.40
2023-03-02T17:18:55.696Z,12.48
2023-03-02T17:21:24.496Z,36.85
2023-03-02T17:23:52.251Z,17.35
2023-03-02T17:26:21.346Z,11.82
2023-03-02T17:28:49.553Z,9.82
2023-03-02T17:31:17.405Z,10.93
2023-03-02T17:33:45.320Z,11.82
2023-03-02T17:36:13.292Z,9.27
2023-03-02T17:38:41.525Z,9.52
2023-03-02T17:41:10.949Z,10.45
2023-03-02T17:43:42.295Z,9.02
2023-03-02T17:46:12.258Z,8.60
2023-03-02T17:48:40.354Z,8.95
2023-03-02T17:51:08.076Z,8.50
2023-03-02T17:53:35.878Z,9.13
2023-03-02T17:56:03.651Z,9.45
2023-03-02T17:58:44.224Z,8.55
2023-03-02T18:01:15.776Z,9.40
2023-03-02T18:03:45.137Z,9.07
2023-03-02T18:06:13.393Z,9.05
2023-03-02T18:08:41.459Z,9.23
2023-03-02T18:11:09.342Z,9.10
2023-03-02T18:13:37.509Z,9.57
2023-03-02T18:16:05.555Z,8.73
2023-03-02T18:18:34.751Z,9.65
2023-03-02T18:21:02.561Z,9.50
2023-03-02T18:23:30.783Z,9.43
2023-03-02T18:25:59.226Z,9.25
2023-03-02T18:28:27.152Z,9.40
2023-03-02T18:30:54.843Z,8.93
2023-03-02T18:33:22.600Z,10.02
2023-03-02T18:35:51.584Z,9.35
2023-03-02T18:38:19.378Z,9.63
2023-03-02T18:40:47.136Z,9.40
2023-03-02T18:43:14.782Z,8.93
2023-03-02T18:45:42.486Z,9.00
2023-03-02T18:48:10.348Z,9.50
2023-03-02T18:50:39.568Z,9.98
2023-03-02T18:53:09.638Z,9.00
2023-03-02T18:55:38.096Z,9.30
2023-03-02T18:58:05.753Z,8.82
2023-03-02T19:00:34.886Z,9.45
2023-03-02T19:03:02.627Z,8.13
2023-03-02T19:05:30.350Z,8.93
2023-03-02T19:08:00.131Z,8.10
2023-03-02T19:10:29.259Z,8.50
2023-03-02T19:12:57.045Z,8.80
2023-03-02T19:15:24.963Z,8.90
2023-03-02T19:17:53.112Z,8.63
2023-03-02T19:20:22.031Z,9.07
2023-03-02T19:22:49.949Z,8.43
2023-03-02T19:25:17.878Z,8.63
2023-03-02T19:27:47.274Z,8.25
2023-03-02T19:30:19.412Z,8.25
2023-03-02T19:32:47.623Z,7.93
2023-03-02T19:35:17.858Z,8.05
2023-03-02T19:37:45.842Z,7.85
2023-03-02T19:40:15.152Z,7.70
2023-03-02T19:42:45.135Z,8.02
2023-03-02T19:45:17.373Z,7.72
2023-03-02T19:47:47.062Z,7.60
2023-03-02T19:50:16.280Z,7.25
2023-03-02T19:52:44.332Z,6.30
2023-03-02T19:55:13.817Z,6.97
2023-03-02T19:57:42.992Z,7.70
2023-03-02T20:00:16.083Z,7.78
2023-03-02T20:02:45.048Z,7.47
2023-03-02T20:05:13.186Z,6.53
2023-03-02T20:07:41.847Z,7.32
2023-03-02T20:10:11.307Z,7.00
2023-03-02T20:12:39.079Z,7.05
2023-03-02T20:15:08.129Z,6.50
2023-03-02T20:17:37.260Z,7.90
2023-03-02T20:20:05.676Z,6.68
2023-03-02T20:22:33.489Z,6.93
2023-03-02T20:25:01.234Z,6.90
2023-03-02T20:27:29.332Z,6.35
2023-03-02T20:29:57.321Z,7.47
2023-03-02T20:32:25.313Z,7.28
2023-03-02T20:34:54.575Z,7.45
2023-03-02T20:37:25.835Z,7.28
2023-03-02T20:39:54.143Z,7.38
2023-03-02T20:42:22.214Z,7.40
2023-03-02T20:44:50.007Z,6.55
2023-03-02T20:47:17.858Z,6.85
2023-03-02T20:49:45.675Z,7.18
2023-03-02T20:52:15.102Z,7.18
2023-03-02T20:54:43.737Z,6.75
2023-03-02T20:57:15.931Z,6.53
2023-03-02T20:59:45.737Z,6.35
2023-03-02T21:02:15.459Z,5.97
2023-03-02T21:04:43.460Z,6.38
2023-03-02T21:07:12.236Z,6.72
2023-03-02T21:09:41.847Z,6.50
2023-03-02T21:12:11.728Z,6.18
2023-03-02T21:14:40.671Z,6.20
2023-03-02T21:17:09.373Z,6.38
2023-03-02T21:19:37.415Z,6.38
2023-03-02T21:22:05.131Z,6.05
2023-03-02T21:24:32.876Z,6.63
2023-03-02T21:27:02.621Z,6.30
2023-03-02T21:29:30.670Z,6.40
2023-03-02T21:31:58.635Z,6.47
2023-03-02T21:34:26.398Z,6.15
2023-03-02T21:36:54.146Z,6.40
2023-03-02T21:39:23.583Z,6.20
2023-03-02T21:41:51.844Z,6.22
2023-03-02T21:44:21.241Z,6.10
2023-03-02T21:46:49.154Z,5.80
2023-03-02T21:49:18.243Z,6.22
2023-03-02T21:51:48.822Z,6.20
2023-03-02T21:54:17.323Z,6.32
2023-03-02T21:56:45.292Z,5.65
2023-03-02T21:59:13.814Z,6.10
2023-03-02T22:01:43.127Z,6.03
2023-03-02T22:04:11.127Z,5.85
2023-03-02T22:06:38.863Z,5.75
2023-03-02T22:09:06.681Z,5.65
2023-03-02T22:11:36.300Z,6.20
2023-03-02T22:14:12.178Z,5.70
2023-03-02T22:16:45.062Z,5.53
2023-03-02T22:21:50.024Z,5.47
2023-03-02T22:24:23.682Z,5.78
2023-03-02T22:26:59.443Z,5.60
2023-03-02T22:29:29.578Z,5.43
2023-03-02T22:32:10.885Z,5.82
2023-03-02T22:34:38.870Z,5.30
2023-03-02T22:37:13.364Z,6.05
2023-03-02T22:39:42.341Z,5.45
2023-03-02T22:42:14.459Z,6.22
2023-03-02T22:44:42.425Z,5.47
2023-03-02T22:47:16.669Z,5.85
2023-03-02T22:49:44.669Z,5.65
2023-03-02T22:52:15.384Z,5.57
2023-03-02T22:54:43.130Z,5.50
2023-03-02T22:57:30.006Z,5.40
2023-03-02T23:00:28.947Z,5.63
2023-03-02T23:02:58.530Z,5.82
2023-03-02T23:05:30.222Z,5.55
2023-03-02T23:08:15.865Z,6.10
2023-03-02T23:10:43.786Z,5.90
2023-03-02T23:13:12.754Z,6.25
2023-03-02T23:15:41.495Z,5.63
2023-03-02T23:18:23.975Z,6.25
2023-03-02T23:20:52.867Z,6.00
2023-03-02T23:23:22.431Z,6.25
2023-03-02T23:25:50.692Z,6.38
2023-03-02T23:28:18.482Z,5.95
2023-03-02T23:30:47.561Z,6.07
2023-03-02T23:33:16.644Z,6.28
2023-03-02T23:35:44.433Z,5.93
2023-03-02T23:38:12.557Z,5.95
2023-03-02T23:40:41.589Z,6.40
2023-03-02T23:43:09.423Z,6.38
2023-03-02T23:45:39.168Z,6.20
2023-03-02T23:48:07.705Z,6.38
2023-03-02T23:50:37.119Z,6.30
2023-03-02T23:53:05.127Z,6.53
2023-03-02T23:55:33.325Z,6.20
2023-03-02T23:58:00.995Z,6.28
